createdAt,value
2018-01-15T00:01:33.527Z,84.81
2018-01-15T00:03:59.556Z,84.82
2018-01-15T00:06:25.609Z,85.20
2018-01-15T00:08:51.664Z,85.36
2018-01-15T00:11:17.681Z,85.51
2018-01-15T00:13:43.760Z,85.80
2018-01-15T00:16:09.912Z,86.69
2018-01-15T00:18:35.876Z,86.94
2018-01-15T00:21:01.916Z,87.00
2018-01-15T00:23:27.942Z,87.07
2018-01-15T00:25:53.863Z,87.04
2018-01-15T00:28:19.931Z,87.24
2018-01-15T00:30:45.984Z,86.94
2018-01-15T00:33:12.053Z,87.01
2018-01-15T00:35:38.057Z,87.63
2018-01-15T00:38:04.127Z,88.54
2018-01-15T00:40:30.164Z,87.94
2018-01-15T00:42:56.248Z,87.18
2018-01-15T00:45:22.288Z,87.14
2018-01-15T00:47:48.321Z,87.39
2018-01-15T00:50:14.260Z,87.67
2018-01-15T00:52:40.256Z,87.91
2018-01-15T00:55:06.330Z,88.14
2018-01-15T00:57:32.384Z,87.12
2018-01-15T00:59:58.400Z,86.67
2018-01-15T01:02:24.442Z,87.14
2018-01-15T01:04:50.455Z,87.34
2018-01-15T01:07:16.461Z,87.51
2018-01-15T01:09:42.507Z,87.51
2018-01-15T01:12:08.536Z,87.58
2018-01-15T01:14:34.552Z,87.49
2018-01-15T01:17:00.621Z,87.23
2018-01-15T01:19:26.616Z,87.17
2018-01-15T01:21:52.625Z,87.13
2018-01-15T01:24:18.732Z,87.68
2018-01-15T01:26:51.676Z,87.63
2018-01-15T01:29:18.093Z,87.11
2018-01-15T01:31:44.119Z,87.06
2018-01-15T01:34:10.117Z,87.37
2018-01-15T01:36:36.127Z,87.08
2018-01-15T01:39:02.153Z,87.12
2018-01-15T01:41:28.169Z,87.31
2018-01-15T01:43:54.255Z,87.41
2018-01-15T01:46:20.304Z,87.90
2018-01-15T01:48:57.589Z,87.86
2018-01-15T01:51:23.607Z,88.43
2018-01-15T01:53:49.664Z,88.97
2018-01-15T01:56:15.705Z,89.00
2018-01-15T01:58:41.721Z,88.69
2018-01-15T02:01:07.763Z,88.46
2018-01-15T02:03:33.796Z,87.79
2018-01-15T02:05:59.856Z,87.82
2018-01-15T02:08:25.865Z,88.20
2018-01-15T02:10:51.905Z,87.78
2018-01-15T02:13:17.936Z,86.77
2018-01-15T02:15:43.965Z,86.15
2018-01-15T02:18:09.984Z,86.70
2018-01-15T02:20:36.041Z,86.69
2018-01-15T02:23:02.092Z,86.76
2018-01-15T02:25:28.164Z,87.37
2018-01-15T02:27:54.164Z,87.69
2018-01-15T02:30:20.161Z,87.75
2018-01-15T02:32:46.195Z,87.91
2018-01-15T02:35:12.230Z,87.29
2018-01-15T02:37:38.232Z,87.23
2018-01-15T02:40:04.357Z,87.23
2018-01-15T02:42:30.356Z,88.27
2018-01-15T02:44:57.014Z,88.28
2018-01-15T02:47:23.026Z,88.09
2018-01-15T02:49:49.055Z,87.77
2018-01-15T02:52:15.099Z,87.82
2018-01-15T02:54:41.091Z,87.50
2018-01-15T02:57:07.184Z,87.25
2018-01-15T02:59:33.140Z,87.00
2018-01-15T03:01:59.177Z,87.50
2018-01-15T03:04:25.569Z,87.57
2018-01-15T03:06:51.560Z,87.69
2018-01-15T03:09:17.587Z,88.11
2018-01-15T03:11:43.596Z,88.24
2018-01-15T03:14:09.686Z,87.79
2018-01-15T03:16:35.700Z,87.64
2018-01-15T03:19:01.817Z,87.77
2018-01-15T03:21:27.923Z,87.69
2018-01-15T03:23:53.913Z,87.60
2018-01-15T03:26:19.948Z,87.00
2018-01-15T03:28:46.029Z,87.08
2018-01-15T03:31:12.044Z,87.15
2018-01-15T03:33:38.078Z,86.87
2018-01-15T03:36:04.100Z,86.01
2018-01-15T03:38:30.113Z,85.38
2018-01-15T03:40:56.220Z,86.08
2018-01-15T03:43:22.268Z,87.30
2018-01-15T03:45:48.295Z,87.91
2018-01-15T03:48:14.344Z,87.57
2018-01-15T03:50:40.392Z,87.66
2018-01-15T03:53:06.432Z,88.02
2018-01-15T03:55:32.465Z,88.15
2018-01-15T03:57:58.463Z,88.13
2018-01-15T04:00:24.492Z,87.74
2018-01-15T04:02:50.492Z,87.61
2018-01-15T04:05:16.481Z,87.59
2018-01-15T04:07:42.513Z,87.79
2018-01-15T04:10:08.512Z,88.86
2018-01-15T04:12:34.777Z,89.29
2018-01-15T04:15:00.795Z,89.46
2018-01-15T04:17:26.777Z,89.49
2018-01-15T04:19:52.793Z,90.11
2018-01-15T04:22:18.784Z,90.59
2018-01-15T04:24:44.815Z,90.39
2018-01-15T04:27:10.842Z,89.95
2018-01-15T04:29:36.864Z,89.67
2018-01-15T04:32:02.887Z,89.60
2018-01-15T04:34:28.909Z,90.40
2018-01-15T04:36:54.965Z,90.14
2018-01-15T04:39:21.005Z,89.99
2018-01-15T04:41:47.016Z,90.38
2018-01-15T04:44:13.061Z,90.45
2018-01-15T04:46:39.100Z,89.65
2018-01-15T04:49:05.296Z,89.87
2018-01-15T04:51:31.280Z,90.69
2018-01-15T04:53:57.391Z,91.05
2018-01-15T04:56:23.420Z,91.26
2018-01-15T04:58:49.409Z,90.92
2018-01-15T05:01:15.419Z,90.76
2018-01-15T05:03:41.336Z,90.62
2018-01-15T05:06:07.372Z,90.73
2018-01-15T05:08:33.444Z,90.42
2018-01-15T05:10:59.424Z,90.56
2018-01-15T05:13:25.372Z,90.77
2018-01-15T05:15:51.384Z,91.23
2018-01-15T05:18:17.428Z,91.46
2018-01-15T05:20:43.421Z,91.22
2018-01-15T05:23:09.477Z,91.36
2018-01-15T05:25:35.492Z,91.37
2018-01-15T05:28:01.534Z,91.61
2018-01-15T05:30:27.566Z,91.90
2018-01-15T05:32:53.608Z,91.89
2018-01-15T05:35:19.655Z,92.13
2018-01-15T05:37:45.672Z,92.03
2018-01-15T05:40:12.528Z,92.06
2018-01-15T05:42:38.537Z,91.50
2018-01-15T05:45:04.625Z,91.58
2018-01-15T05:47:30.696Z,91.50
2018-01-15T05:49:56.975Z,91.72
2018-01-15T05:52:22.992Z,91.50
2018-01-15T05:54:49.032Z,91.57
2018-01-15T05:57:15.119Z,91.51
2018-01-15T05:59:41.124Z,91.34
2018-01-15T06:02:07.172Z,91.28
2018-01-15T06:04:33.201Z,91.65
2018-01-15T06:06:59.201Z,92.01
2018-01-15T06:09:25.232Z,92.19
2018-01-15T06:11:51.288Z,92.11
2018-01-15T06:14:17.237Z,91.93
2018-01-15T06:16:43.265Z,91.76
2018-01-15T06:19:09.321Z,92.21
2018-01-15T06:21:35.396Z,92.30
2018-01-15T06:24:01.445Z,92.54
2018-01-15T06:26:27.476Z,92.75
2018-01-15T06:28:53.496Z,92.66
2018-01-15T06:31:19.485Z,92.79
2018-01-15T06:33:45.637Z,92.46
2018-01-15T06:36:11.660Z,92.49
2018-01-15T06:38:37.691Z,92.32
2018-01-15T06:41:03.756Z,92.14
2018-01-15T06:43:29.797Z,92.15
2018-01-15T06:45:55.793Z,92.03
2018-01-15T06:48:21.805Z,92.28
2018-01-15T06:50:47.825Z,92.42
2018-01-15T06:53:14.021Z,92.54
2018-01-15T06:55:40.025Z,92.54
2018-01-15T06:58:06.085Z,92.37
2018-01-15T07:00:32.107Z,92.18
2018-01-15T07:02:58.181Z,92.09
2018-01-15T07:05:24.260Z,92.15
2018-01-15T07:07:50.456Z,92.37
2018-01-15T07:10:16.432Z,92.72
2018-01-15T07:12:42.457Z,92.70
2018-01-15T07:15:15.357Z,92.68
2018-01-15T07:17:41.366Z,92.79
2018-01-15T07:20:07.377Z,92.54
2018-01-15T07:22:33.529Z,92.19
2018-01-15T07:24:59.552Z,92.60
2018-01-15T07:27:25.572Z,92.91
2018-01-15T07:29:51.659Z,92.69
2018-01-15T07:32:17.701Z,92.66
2018-01-15T07:34:43.771Z,93.22
2018-01-15T07:37:09.793Z,91.91
2018-01-15T07:39:35.929Z,92.13
2018-01-15T07:42:01.941Z,92.04
2018-01-15T07:44:27.925Z,91.75
2018-01-15T07:46:54.060Z,91.57
2018-01-15T07:49:20.085Z,91.23
2018-01-15T07:51:46.174Z,91.23
2018-01-15T07:54:12.995Z,91.16
2018-01-15T07:56:39.499Z,90.79
2018-01-15T07:59:06.581Z,89.61
2018-01-15T08:01:32.617Z,88.98
2018-01-15T08:03:58.624Z,88.39
2018-01-15T08:06:24.644Z,87.92
2018-01-15T08:08:50.676Z,87.92
2018-01-15T08:11:16.685Z,87.93
2018-01-15T08:13:42.717Z,87.63
2018-01-15T08:16:08.768Z,87.47
2018-01-15T08:18:34.795Z,87.65
2018-01-15T08:21:00.812Z,87.39
2018-01-15T08:23:26.836Z,87.56
2018-01-15T08:25:52.833Z,87.42
2018-01-15T08:28:18.861Z,87.68
2018-01-15T08:30:44.818Z,87.74
2018-01-15T08:33:10.765Z,87.84
2018-01-15T08:35:36.869Z,87.30
2018-01-15T08:38:02.892Z,87.12
2018-01-15T08:40:28.954Z,87.11
2018-01-15T08:42:55.005Z,86.81
2018-01-15T08:45:21.016Z,86.85
2018-01-15T08:47:47.045Z,86.80
2018-01-15T08:50:13.076Z,86.28
2018-01-15T08:52:39.081Z,86.01
2018-01-15T08:55:05.077Z,85.98
2018-01-15T08:57:31.136Z,86.24
2018-01-15T08:59:57.135Z,85.63
2018-01-15T09:02:23.165Z,86.10
2018-01-15T09:04:49.251Z,85.43
2018-01-15T09:07:15.288Z,85.51
2018-01-15T09:09:41.318Z,84.64
2018-01-15T09:12:07.339Z,84.90
2018-01-15T09:14:33.330Z,84.60
2018-01-15T09:16:59.360Z,84.34
2018-01-15T09:19:25.372Z,84.41
2018-01-15T09:21:51.411Z,84.50
2018-01-15T09:24:17.416Z,84.36
2018-01-15T09:26:43.440Z,84.06
2018-01-15T09:29:09.432Z,84.04
2018-01-15T09:31:35.500Z,83.37
2018-01-15T09:34:01.528Z,83.25
2018-01-15T09:36:27.548Z,83.66
2018-01-15T09:38:53.564Z,83.43
2018-01-15T09:41:19.541Z,83.43
2018-01-15T09:43:45.539Z,83.10
2018-01-15T09:46:11.526Z,83.06
2018-01-15T09:48:37.540Z,82.30
2018-01-15T09:51:03.613Z,82.45
2018-01-15T09:53:29.656Z,83.24
2018-01-15T09:55:55.674Z,82.64
2018-01-15T09:58:21.716Z,82.77
2018-01-15T10:00:47.789Z,82.82
2018-01-15T10:03:13.858Z,82.22
2018-01-15T10:05:39.980Z,82.45
2018-01-15T10:08:05.997Z,82.65
2018-01-15T10:10:32.005Z,82.67
2018-01-15T10:12:58.024Z,82.72
2018-01-15T10:15:24.064Z,82.25
2018-01-15T10:17:50.115Z,81.83
2018-01-15T10:20:16.253Z,80.91
2018-01-15T10:22:42.295Z,80.80
2018-01-15T10:25:08.389Z,80.26
2018-01-15T10:27:34.453Z,80.77
2018-01-15T10:30:00.548Z,80.60
2018-01-15T10:32:26.644Z,80.80
2018-01-15T10:34:52.640Z,80.43
2018-01-15T10:37:18.689Z,80.78
2018-01-15T10:39:44.708Z,80.74
2018-01-15T10:42:10.725Z,80.75
2018-01-15T10:44:36.764Z,80.76
2018-01-15T10:47:02.769Z,81.07
2018-01-15T10:49:28.745Z,80.89
2018-01-15T10:51:54.728Z,80.59
2018-01-15T10:54:20.808Z,80.53
2018-01-15T10:56:46.836Z,80.42
2018-01-15T10:59:12.900Z,79.87
2018-01-15T11:01:39.056Z,79.67
2018-01-15T11:04:05.065Z,79.99
2018-01-15T11:06:31.089Z,80.16
2018-01-15T11:08:57.089Z,79.63
2018-01-15T11:11:23.122Z,79.33
2018-01-15T11:13:49.184Z,79.50
2018-01-15T11:16:15.232Z,79.39
2018-01-15T11:18:41.266Z,80.09
2018-01-15T11:21:07.311Z,80.31
2018-01-15T11:23:33.304Z,80.20
2018-01-15T11:25:59.350Z,80.13
2018-01-15T11:28:25.356Z,80.30
2018-01-15T11:30:51.368Z,80.25
2018-01-15T11:33:17.425Z,80.51
2018-01-15T11:35:43.448Z,80.24
2018-01-15T11:38:09.443Z,80.59
2018-01-15T11:40:35.491Z,80.40
2018-01-15T11:43:01.525Z,80.37
2018-01-15T11:45:27.517Z,80.27
2018-01-15T11:47:53.573Z,80.41
2018-01-15T11:50:19.532Z,79.88
2018-01-15T11:52:45.544Z,79.73
2018-01-15T11:55:11.528Z,79.14
2018-01-15T11:57:37.558Z,79.34
2018-01-15T12:00:03.734Z,79.02
2018-01-15T12:02:29.858Z,78.62
2018-01-15T12:04:55.873Z,79.02
2018-01-15T12:07:21.896Z,79.17
2018-01-15T12:09:47.936Z,79.67
2018-01-15T12:12:13.955Z,79.52
2018-01-15T12:14:39.980Z,79.00
2018-01-15T12:25:51.064Z,77.65
2018-01-15T12:28:17.081Z,77.78
2018-01-15T12:30:43.100Z,77.79
2018-01-15T12:33:09.077Z,77.07
2018-01-15T12:35:35.081Z,76.82
2018-01-15T12:38:01.872Z,76.74
2018-01-15T12:40:27.912Z,76.19
2018-01-15T12:42:53.860Z,76.97
2018-01-15T12:45:19.901Z,76.63
2018-01-15T12:47:45.917Z,75.79
2018-01-15T12:50:11.945Z,75.82
2018-01-15T12:52:37.976Z,75.91
2018-01-15T12:55:04.143Z,75.74
2018-01-15T12:57:30.184Z,75.40
2018-01-15T12:59:56.125Z,75.67
2018-01-15T13:02:22.124Z,75.94
2018-01-15T13:04:48.133Z,76.12
2018-01-15T13:07:26.252Z,76.45
2018-01-15T13:09:52.258Z,76.62
2018-01-15T13:12:18.288Z,76.73
2018-01-15T13:14:44.320Z,77.08
2018-01-15T13:17:10.316Z,76.38
2018-01-15T13:19:36.937Z,76.02
2018-01-15T13:22:02.973Z,76.15
2018-01-15T13:24:28.984Z,76.04
2018-01-15T13:26:55.028Z,76.21
2018-01-15T13:29:21.125Z,75.87
2018-01-15T13:31:47.172Z,75.84
2018-01-15T13:34:13.106Z,76.40
2018-01-15T13:36:39.121Z,76.43
2018-01-15T13:39:05.132Z,76.57
2018-01-15T13:41:31.137Z,76.84
2018-01-15T13:43:57.137Z,76.73
2018-01-15T13:46:23.168Z,76.92
2018-01-15T13:48:49.194Z,76.98
2018-01-15T13:51:15.304Z,77.16
2018-01-15T13:53:41.305Z,77.10
2018-01-15T13:56:07.338Z,77.23
2018-01-15T13:58:33.367Z,76.65
2018-01-15T14:00:59.471Z,77.34
2018-01-15T14:03:25.494Z,77.33
2018-01-15T14:05:51.520Z,77.46
2018-01-15T14:08:17.610Z,77.86
2018-01-15T14:10:43.618Z,78.06
2018-01-15T14:13:09.667Z,78.51
2018-01-15T14:15:35.672Z,78.79
2018-01-15T14:18:01.617Z,79.35
2018-01-15T14:20:27.620Z,79.59
2018-01-15T14:22:53.637Z,79.11
2018-01-15T14:25:19.657Z,79.07
2018-01-15T14:27:45.701Z,78.85
2018-01-15T14:30:12.144Z,79.07
2018-01-15T14:32:38.116Z,79.27
2018-01-15T14:35:04.256Z,79.05
2018-01-15T14:37:30.208Z,79.13
2018-01-15T14:39:56.249Z,79.11
2018-01-15T14:42:22.280Z,79.31
2018-01-15T14:44:48.319Z,79.74
2018-01-15T14:47:14.341Z,79.54
2018-01-15T14:49:40.339Z,79.91
2018-01-15T14:52:06.391Z,79.67
2018-01-15T14:54:32.383Z,79.72
2018-01-15T14:56:58.336Z,80.06
2018-01-15T14:59:24.356Z,79.96
2018-01-15T15:01:50.404Z,80.00
2018-01-15T15:04:16.442Z,80.11
2018-01-15T15:06:42.449Z,79.93
2018-01-15T15:09:08.448Z,80.14
2018-01-15T15:11:34.480Z,79.89
2018-01-15T15:14:00.500Z,80.06
2018-01-15T15:16:26.583Z,80.06
2018-01-15T15:18:52.712Z,80.33
2018-01-15T15:21:18.770Z,80.28
2018-01-15T15:23:44.820Z,80.71
2018-01-15T15:26:10.845Z,80.53
2018-01-15T15:28:36.921Z,80.07
2018-01-15T15:31:02.938Z,80.58
2018-01-15T15:33:28.904Z,80.21
2018-01-15T15:35:54.996Z,80.46
2018-01-15T15:38:21.001Z,80.71
2018-01-15T15:40:47.069Z,80.83
2018-01-15T15:43:13.120Z,80.90
2018-01-15T15:45:39.204Z,80.81
2018-01-15T15:48:05.191Z,80.72
2018-01-15T15:50:31.212Z,80.85
2018-01-15T15:52:57.334Z,80.76
2018-01-15T15:55:23.390Z,80.71
2018-01-15T15:57:49.393Z,80.85
2018-01-15T16:00:15.463Z,80.84
2018-01-15T16:02:41.562Z,80.22
2018-01-15T16:05:07.720Z,80.56
2018-01-15T16:07:33.747Z,80.34
2018-01-15T16:09:59.781Z,80.22
2018-01-15T16:12:25.819Z,80.46
2018-01-15T16:14:51.905Z,80.58
2018-01-15T16:17:17.941Z,80.32
2018-01-15T16:19:43.985Z,80.68
2018-01-15T16:22:30.791Z,80.17
2018-01-15T16:24:56.813Z,80.44
2018-01-15T16:27:22.882Z,80.38
2018-01-15T16:29:48.923Z,80.70
2018-01-15T16:32:15.030Z,80.47
2018-01-15T16:34:41.143Z,80.43
2018-01-15T16:37:07.129Z,80.82
2018-01-15T16:39:33.200Z,80.33
2018-01-15T16:41:59.289Z,80.51
2018-01-15T16:44:25.343Z,80.71
2018-01-15T16:46:51.288Z,80.32
2018-01-15T16:49:17.306Z,80.31
2018-01-15T16:51:43.372Z,80.24
2018-01-15T16:54:09.344Z,80.09
2018-01-15T16:56:35.450Z,80.18
2018-01-15T16:59:01.520Z,81.04
2018-01-15T17:01:27.564Z,80.93
2018-01-15T17:03:53.618Z,79.82
2018-01-15T17:06:19.667Z,79.68
2018-01-15T17:08:45.825Z,79.69
2018-01-15T17:11:11.932Z,79.86
2018-01-15T17:13:37.964Z,79.95
2018-01-15T17:16:04.015Z,80.22
2018-01-15T17:18:30.096Z,80.42
2018-01-15T17:20:56.128Z,80.33
2018-01-15T17:23:22.231Z,80.93
2018-01-15T17:25:48.229Z,80.32
2018-01-15T17:28:14.264Z,80.17
2018-01-15T17:30:40.371Z,80.11
2018-01-15T17:33:06.503Z,80.03
2018-01-15T17:35:32.545Z,80.48
2018-01-15T17:37:58.648Z,80.61
2018-01-15T17:40:24.719Z,80.31
2018-01-15T17:42:50.890Z,80.65
2018-01-15T17:45:17.001Z,80.57
2018-01-15T17:47:43.456Z,80.48
2018-01-15T17:50:09.404Z,80.29
2018-01-15T17:52:36.613Z,80.94
2018-01-15T17:55:03.352Z,80.72
2018-01-15T17:57:29.441Z,80.63
2018-01-15T17:59:55.504Z,80.57
2018-01-15T18:02:21.634Z,80.36
2018-01-15T18:04:47.716Z,80.46
2018-01-15T18:07:13.762Z,80.04
2018-01-15T18:09:39.826Z,80.27
2018-01-15T18:12:06.884Z,80.02
2018-01-15T18:14:32.917Z,79.38
2018-01-15T18:16:58.935Z,79.97
2018-01-15T18:19:25.024Z,79.89
2018-01-15T18:21:51.076Z,80.29
2018-01-15T18:24:17.127Z,80.22
2018-01-15T18:26:43.198Z,80.58
2018-01-15T18:29:09.321Z,80.93
2018-01-15T18:31:35.333Z,80.72
2018-01-15T18:34:01.451Z,80.95
2018-01-15T18:36:27.525Z,80.70
2018-01-15T18:38:53.531Z,80.38
2018-01-15T18:41:19.579Z,80.39
2018-01-15T18:43:45.608Z,80.66
2018-01-15T18:46:11.634Z,80.11
2018-01-15T18:48:37.722Z,79.86
2018-01-15T18:51:03.819Z,80.20
2018-01-15T18:53:29.994Z,79.24
2018-01-15T18:55:56.009Z,79.77
2018-01-15T18:58:22.041Z,79.36
2018-01-15T19:00:48.109Z,79.27
2018-01-15T19:03:14.172Z,79.30
2018-01-15T19:05:40.241Z,79.63
2018-01-15T19:08:06.240Z,79.25
2018-01-15T19:10:32.370Z,79.19
2018-01-15T19:12:58.504Z,78.89
2018-01-15T19:15:24.518Z,78.34
2018-01-15T19:17:50.777Z,78.41
2018-01-15T19:20:16.792Z,78.57
2018-01-15T19:22:43.163Z,78.86
2018-01-15T19:25:09.219Z,78.70
2018-01-15T19:27:35.224Z,78.23
2018-01-15T19:30:01.365Z,78.62
2018-01-15T19:32:27.423Z,78.61
2018-01-15T19:34:54.278Z,78.69
2018-01-15T19:37:28.391Z,78.61
2018-01-15T19:39:54.497Z,78.29
2018-01-15T19:42:20.689Z,78.48
2018-01-15T19:44:52.780Z,78.44
2018-01-15T19:47:24.956Z,78.49
2018-01-15T19:49:57.005Z,78.23
2018-01-15T19:52:29.036Z,78.36
2018-01-15T19:55:01.194Z,78.63
2018-01-15T19:57:33.372Z,78.74
2018-01-15T20:00:05.608Z,78.46
2018-01-15T20:02:37.997Z,78.50
2018-01-15T20:08:13.296Z,78.78
2018-01-15T20:10:43.334Z,78.39
2018-01-15T20:13:09.397Z,78.50
2018-01-15T20:15:35.493Z,78.33
2018-01-15T20:18:01.615Z,77.91
2018-01-15T20:20:27.605Z,78.00
2018-01-15T20:22:53.699Z,78.45
2018-01-15T20:25:19.751Z,78.50
2018-01-15T20:27:45.768Z,78.19
2018-01-15T20:30:11.891Z,78.77
2018-01-15T20:32:37.975Z,78.49
2018-01-15T20:35:04.039Z,78.63
2018-01-15T20:37:30.046Z,78.56
2018-01-15T20:39:56.085Z,79.40
2018-01-15T20:42:22.208Z,79.44
2018-01-15T20:44:48.225Z,80.00
2018-01-15T20:47:14.284Z,80.48
2018-01-15T20:49:40.324Z,79.98
2018-01-15T20:52:06.332Z,80.16
2018-01-15T20:54:32.438Z,80.05
2018-01-15T20:56:58.535Z,80.09
2018-01-15T20:59:24.561Z,80.22
2018-01-15T21:01:50.572Z,80.58
2018-01-15T21:04:16.716Z,80.43
2018-01-15T21:06:42.732Z,80.43
2018-01-15T21:09:08.772Z,81.35
2018-01-15T21:11:34.835Z,81.97
2018-01-15T21:14:00.852Z,82.92
2018-01-15T21:16:28.132Z,83.05
2018-01-15T21:18:54.177Z,83.80
2018-01-15T21:21:20.256Z,84.59
2018-01-15T21:23:46.392Z,85.32
2018-01-15T21:26:12.483Z,85.94
2018-01-15T21:28:38.579Z,87.20
2018-01-15T21:31:04.591Z,87.92
2018-01-15T21:33:30.774Z,89.01
2018-01-15T21:36:03.786Z,89.57
2018-01-15T21:38:29.857Z,90.42
2018-01-15T21:40:55.940Z,90.78
2018-01-15T21:43:21.959Z,91.43
2018-01-15T21:45:48.008Z,91.99
2018-01-15T21:48:14.003Z,92.64
2018-01-15T21:50:40.042Z,93.20
2018-01-15T21:53:06.064Z,93.44
2018-01-15T21:55:32.106Z,93.81
2018-01-15T21:57:58.149Z,93.98
2018-01-15T22:00:24.195Z,94.09
2018-01-15T22:02:50.132Z,94.25
2018-01-15T22:05:16.129Z,94.40
2018-01-15T22:07:42.177Z,94.44
2018-01-15T22:10:08.208Z,94.81
2018-01-15T22:12:34.273Z,94.96
2018-01-15T22:15:00.284Z,94.84
2018-01-15T22:17:26.311Z,94.76
2018-01-15T22:19:52.369Z,94.99
2018-01-15T22:22:18.382Z,95.09
2018-01-15T22:24:44.459Z,95.57
2018-01-15T22:27:10.512Z,95.48
2018-01-15T22:29:36.557Z,95.54
2018-01-15T22:32:02.595Z,95.60
2018-01-15T22:34:28.722Z,95.71
2018-01-15T22:36:54.776Z,95.71
2018-01-15T22:39:20.783Z,95.71
2018-01-15T22:41:46.847Z,95.88
2018-01-15T22:44:12.840Z,95.89
2018-01-15T22:46:38.825Z,95.91
2018-01-15T22:49:04.850Z,95.83
2018-01-15T22:51:30.876Z,95.93
2018-01-15T22:53:56.901Z,95.98
2018-01-15T22:56:22.889Z,95.84
2018-01-15T22:58:48.979Z,95.86
2018-01-15T23:01:15.084Z,95.95
2018-01-15T23:03:41.133Z,95.98
2018-01-15T23:06:07.652Z,96.02
2018-01-15T23:08:33.701Z,95.95
2018-01-15T23:10:59.708Z,95.98
2018-01-15T23:13:25.728Z,95.98
2018-01-15T23:15:51.776Z,95.98
2018-01-15T23:18:17.835Z,95.86
2018-01-15T23:20:43.859Z,95.97
2018-01-15T23:23:09.856Z,95.97
2018-01-15T23:25:35.884Z,95.91
2018-01-15T23:28:01.885Z,96.11
2018-01-15T23:30:27.982Z,96.18
2018-01-15T23:32:53.988Z,96.13
2018-01-15T23:35:20.032Z,96.11
2018-01-15T23:37:46.056Z,96.42
2018-01-15T23:40:12.284Z,96.27
2018-01-15T23:42:38.346Z,96.12
2018-01-15T23:45:04.430Z,96.01
2018-01-15T23:47:30.416Z,95.98
2018-01-15T23:49:56.398Z,95.95
2018-01-15T23:52:22.383Z,95.84
2018-01-15T23:54:48.406Z,95.80
2018-01-15T23:57:14.363Z,95.93
2018-01-15T23:59:40.356Z,95.83
